Sugar Land, TX (77498)

2:47 AM CST on December 18, 2014 (GMT -0600)
The Hill | Change Station
CLOSE
Current Station
Personal Weather Station
Location: Sugar Land, TX
Elevation: 82 ft
Nearby Weather Stations

Elev 82 ft 29.63 °N, 95.63 °W | Updated 2 minutes ago

Overcast
Overcast
61.5 °F
Feels Like 61.5 °F
N
1.0
Wind Variable Wind from ENE
Gusts 1.0 mph

Today
High -- | Low -- °F
--% Chance of Precip.
Yesterday
High -- | Low -- °F
Precip. -- in
7:11 AM 5:26 PM
Waning Crescent, 16% visible
Pressure 30.06 in
Visibility 9.0 miles
Clouds Scattered Clouds 1800 ft
Overcast 7000 ft
Dew Point 53 °F
Humidity 74%
Rainfall 0.00 in
Snow Depth Not available.
UV 0 out of 12
Pollen 5.70 out of 12
Air Quality Not available.
Flu Activity Not available.
SPECI KSGR 180826Z AUTO 08004KT 9SM SCT018 OVC070 17/15 A3006 RMK AO2 T01670150

More Conditions Fewer Conditions

Pressure 30.06 in
Visibility 9.0 miles
Clouds Scattered Clouds 1800 ft
Overcast 7000 ft
Dew Point 53 °F
Humidity 74%
Rainfall 0.00 in
Snow Depth Not available.
UV 0 out of 12
Pollen 5.70 out of 12
Air Quality Not available.
Flu Activity Not available.
SPECI KSGR 180826Z AUTO 08004KT 9SM SCT018 OVC070 17/15 A3006 RMK AO2 T01670150

More Conditions Fewer Conditions

10-Day Weather Forecast

Almanac

Astronomy

Dec. 18, 2014 Rise Set
Actual Time
Civil Twilight
Nautical Twilight
Astronomical Twilight
Moon
Length of Visible Light
Length of Day
Tomorrow will be .
, % of the Moon is Illuminated

Today's Extremes

State Highs State Lows

Community

WunderPhotos

Upload Photos

1,778,907 photos uploaded!

WunderBlogs® & News

Nearby

Air Quality

  Air Quality AQ Index Pollutant
Not available.

Snow Depth

Station Depth Elevation

Earthquake Activity

City Distance Mag. Time & Date
Minimum magnitude displayed is 2.5.

Coastal Water Temperatures

Place Temperature

Nearby Weather Stations